Richwood, Arkansas
Current Conditions -  °F | °C
As of 5:56 PM on Friday 28 Nov 2014 (Local Time) from KADF Reporting Station
Clear Clear  
Wind Chill: 47°   Ceiling: Unl
Heat Index: 47°   Visibility: 10mi
Dew Point: 41°   Wind: 3mph
Humidity: 80%   Direction: 180°S
Pressure: 30.1"   Gusts: NA
Location:  34.0941°N, 93.0475°W
Report Text: KADF 282356Z AUTO 18003KT 10SM CLR 08/05 A3010 RMK AO2 56013 T00830050 10172 20088 SLP210
Loading
Personal Weather Stations






























Interactive Weather Map New forecast layout! Learn more

10-Day Weather Forecast

Advertisements
Track Severe Weather on mobile